sensor_id;sensor_type;location;lat;lon;timestamp;temperature;humidity
16200;DHT22;8207;52.494;4.654;2022-11-20T00:01:24;-1.20;99.90
16200;DHT22;8207;52.494;4.654;2022-11-20T00:03:52;-1.20;99.90
16200;DHT22;8207;52.494;4.654;2022-11-20T00:06:20;-1.20;99.90
16200;DHT22;8207;52.494;4.654;2022-11-20T00:08:47;-1.20;99.90
16200;DHT22;8207;52.494;4.654;2022-11-20T00:11:17;-1.20;99.90
16200;DHT22;8207;52.494;4.654;2022-11-20T00:13:45;-1.30;99.90
16200;DHT22;8207;52.494;4.654;2022-11-20T00:16:16;-1.30;99.90
16200;DHT22;8207;52.494;4.654;2022-11-20T00:18:43;-1.40;99.90
16200;DHT22;8207;52.494;4.654;2022-11-20T00:21:12;-1.40;99.90
16200;DHT22;8207;52.494;4.654;2022-11-20T00:23:39;-1.40;99.90
16200;DHT22;8207;52.494;4.654;2022-11-20T00:26:08;-1.50;99.90
16200;DHT22;8207;52.494;4.654;2022-11-20T00:28:37;-1.50;99.90
16200;DHT22;8207;52.494;4.654;2022-11-20T00:31:06;-1.40;99.90
16200;DHT22;8207;52.494;4.654;2022-11-20T00:33:34;-1.50;99.90
16200;DHT22;8207;52.494;4.654;2022-11-20T00:36:01;-1.40;99.90
16200;DHT22;8207;52.494;4.654;2022-11-20T00:38:29;-1.50;99.90
16200;DHT22;8207;52.494;4.654;2022-11-20T00:40:56;-1.40;99.90
16200;DHT22;8207;52.494;4.654;2022-11-20T00:43:24;-1.40;99.90
16200;DHT22;8207;52.494;4.654;2022-11-20T00:45:56;-1.40;99.90
16200;DHT22;8207;52.494;4.654;2022-11-20T00:48:24;-1.40;99.90
16200;DHT22;8207;52.494;4.654;2022-11-20T00:50:51;-1.40;99.90
16200;DHT22;8207;52.494;4.654;2022-11-20T00:53:18;-1.40;99.90
16200;DHT22;8207;52.494;4.654;2022-11-20T00:55:53;-1.40;99.90
16200;DHT22;8207;52.494;4.654;2022-11-20T00:58:20;-1.40;99.90
16200;DHT22;8207;52.494;4.654;2022-11-20T01:00:47;-1.40;99.90
16200;DHT22;8207;52.494;4.654;2022-11-20T01:03:16;-1.50;99.90
16200;DHT22;8207;52.494;4.654;2022-11-20T01:05:43;-1.50;99.90
16200;DHT22;8207;52.494;4.654;2022-11-20T01:08:10;-1.60;99.90
16200;DHT22;8207;52.494;4.654;2022-11-20T01:10:37;-1.60;99.90
16200;DHT22;8207;52.494;4.654;2022-11-20T01:13:04;-1.60;99.90
16200;DHT22;8207;52.494;4.654;2022-11-20T01:15:48;-1.70;99.90
16200;DHT22;8207;52.494;4.654;2022-11-20T01:18:16;-1.70;99.90
16200;DHT22;8207;52.494;4.654;2022-11-20T01:20:43;-1.70;99.90
16200;DHT22;8207;52.494;4.654;2022-11-20T01:23:10;-1.70;99.90
16200;DHT22;8207;52.494;4.654;2022-11-20T01:25:36;-1.60;99.90
16200;DHT22;8207;52.494;4.654;2022-11-20T01:28:03;-1.70;99.90
16200;DHT22;8207;52.494;4.654;2022-11-20T01:30:30;-1.70;99.90
16200;DHT22;8207;52.494;4.654;2022-11-20T01:32:57;-1.70;99.90
16200;DHT22;8207;52.494;4.654;2022-11-20T01:35:25;-1.70;99.90
16200;DHT22;8207;52.494;4.654;2022-11-20T01:37:52;-1.70;99.90
16200;DHT22;8207;52.494;4.654;2022-11-20T01:40:19;-1.70;99.90
16200;DHT22;8207;52.494;4.654;2022-11-20T01:42:51;-1.70;99.90
16200;DHT22;8207;52.494;4.654;2022-11-20T01:46:08;-1.70;99.90
16200;DHT22;8207;52.494;4.654;2022-11-20T01:48:43;-1.70;99.90
16200;DHT22;8207;52.494;4.654;2022-11-20T01:51:19;-1.70;99.90
16200;DHT22;8207;52.494;4.654;2022-11-20T01:53:47;-1.70;99.90
16200;DHT22;8207;52.494;4.654;2022-11-20T01:56:15;-1.70;99.90
16200;DHT22;8207;52.494;4.654;2022-11-20T01:58:46;-1.70;99.90
16200;DHT22;8207;52.494;4.654;2022-11-20T02:01:14;-1.70;99.90
16200;DHT22;8207;52.494;4.654;2022-11-20T02:03:42;-1.70;99.90
16200;DHT22;8207;52.494;4.654;2022-11-20T02:06:16;-1.80;99.90
16200;DHT22;8207;52.494;4.654;2022-11-20T02:08:44;-1.80;99.90
16200;DHT22;8207;52.494;4.654;2022-11-20T02:11:11;-1.80;99.90
16200;DHT22;8207;52.494;4.654;2022-11-20T02:13:39;-1.80;99.90
16200;DHT22;8207;52.494;4.654;2022-11-20T02:16:17;-1.80;99.90
16200;DHT22;8207;52.494;4.654;2022-11-20T02:18:46;-1.80;99.90
16200;DHT22;8207;52.494;4.654;2022-11-20T02:21:21;-1.80;99.90
16200;DHT22;8207;52.494;4.654;2022-11-20T02:24:00;-1.80;99.90
16200;DHT22;8207;52.494;4.654;2022-11-20T02:26:30;-1.90;99.90
16200;DHT22;8207;52.494;4.654;2022-11-20T02:28:59;-1.90;99.90
16200;DHT22;8207;52.494;4.654;2022-11-20T02:31:27;-1.90;99.90
16200;DHT22;8207;52.494;4.654;2022-11-20T02:33:55;-1.90;99.90
16200;DHT22;8207;52.494;4.654;2022-11-20T02:36:23;-1.90;99.90
16200;DHT22;8207;52.494;4.654;2022-11-20T02:38:50;-1.90;99.90
16200;DHT22;8207;52.494;4.654;2022-11-20T02:41:19;-1.90;99.90
16200;DHT22;8207;52.494;4.654;2022-11-20T02:43:46;-1.90;99.90
16200;DHT22;8207;52.494;4.654;2022-11-20T02:46:13;-1.90;99.90
16200;DHT22;8207;52.494;4.654;2022-11-20T02:48:39;-1.90;99.90
16200;DHT22;8207;52.494;4.654;2022-11-20T02:51:07;-1.90;99.90
16200;DHT22;8207;52.494;4.654;2022-11-20T02:53:34;-1.90;99.90
16200;DHT22;8207;52.494;4.654;2022-11-20T02:56:00;-1.90;99.90
16200;DHT22;8207;52.494;4.654;2022-11-20T02:58:29;-1.90;99.90
16200;DHT22;8207;52.494;4.654;2022-11-20T03:00:55;-2.00;99.90
16200;DHT22;8207;52.494;4.654;2022-11-20T03:03:22;-2.00;99.90
16200;DHT22;8207;52.494;4.654;2022-11-20T03:05:49;-2.00;99.90
16200;DHT22;8207;52.494;4.654;2022-11-20T03:08:16;-2.00;99.90
16200;DHT22;8207;52.494;4.654;2022-11-20T03:10:43;-2.00;99.90
16200;DHT22;8207;52.494;4.654;2022-11-20T03:13:10;-2.10;99.90
16200;DHT22;8207;52.494;4.654;2022-11-20T03:15:38;-2.10;99.90
16200;DHT22;8207;52.494;4.654;2022-11-20T03:18:05;-2.10;99.90
16200;DHT22;8207;52.494;4.654;2022-11-20T03:20:32;-2.10;99.90
16200;DHT22;8207;52.494;4.654;2022-11-20T03:23:00;-2.10;99.90
16200;DHT22;8207;52.494;4.654;2022-11-20T03:25:27;-2.10;99.90
16200;DHT22;8207;52.494;4.654;2022-11-20T03:27:54;-2.10;99.90
16200;DHT22;8207;52.494;4.654;2022-11-20T03:30:21;-2.10;99.90
16200;DHT22;8207;52.494;4.654;2022-11-20T03:32:52;-2.10;99.90
16200;DHT22;8207;52.494;4.654;2022-11-20T03:35:19;-2.10;99.90
16200;DHT22;8207;52.494;4.654;2022-11-20T03:37:46;-2.10;99.90
16200;DHT22;8207;52.494;4.654;2022-11-20T03:40:14;-2.10;99.90
16200;DHT22;8207;52.494;4.654;2022-11-20T03:42:40;-2.10;99.90
16200;DHT22;8207;52.494;4.654;2022-11-20T03:45:13;-2.10;99.90
16200;DHT22;8207;52.494;4.654;2022-11-20T03:47:41;-2.10;99.90
16200;DHT22;8207;52.494;4.654;2022-11-20T03:50:10;-2.10;99.90
16200;DHT22;8207;52.494;4.654;2022-11-20T03:52:38;-2.10;99.90
16200;DHT22;8207;52.494;4.654;2022-11-20T03:55:06;-2.10;99.90
16200;DHT22;8207;52.494;4.654;2022-11-20T03:57:33;-2.20;99.90
16200;DHT22;8207;52.494;4.654;2022-11-20T03:59:59;-2.20;99.90
16200;DHT22;8207;52.494;4.654;2022-11-20T04:02:26;-2.20;99.90
16200;DHT22;8207;52.494;4.654;2022-11-20T04:04:53;-2.20;99.90
16200;DHT22;8207;52.494;4.654;2022-11-20T04:07:21;-2.10;99.90
16200;DHT22;8207;52.494;4.654;2022-11-20T04:09:48;-2.10;99.90
16200;DHT22;8207;52.494;4.654;2022-11-20T04:12:15;-2.10;99.90
16200;DHT22;8207;52.494;4.654;2022-11-20T04:14:42;-2.10;99.90
16200;DHT22;8207;52.494;4.654;2022-11-20T04:17:09;-2.10;99.90
16200;DHT22;8207;52.494;4.654;2022-11-20T04:19:35;-2.10;99.90
16200;DHT22;8207;52.494;4.654;2022-11-20T04:22:02;-2.20;99.90
16200;DHT22;8207;52.494;4.654;2022-11-20T04:24:30;-2.20;99.90
16200;DHT22;8207;52.494;4.654;2022-11-20T04:26:57;-2.20;99.90
16200;DHT22;8207;52.494;4.654;2022-11-20T04:29:24;-2.20;99.90
16200;DHT22;8207;52.494;4.654;2022-11-20T04:31:51;-2.20;99.90
16200;DHT22;8207;52.494;4.654;2022-11-20T04:34:18;-2.20;99.90
16200;DHT22;8207;52.494;4.654;2022-11-20T04:36:44;-2.20;99.90
16200;DHT22;8207;52.494;4.654;2022-11-20T04:39:13;-2.20;99.90
16200;DHT22;8207;52.494;4.654;2022-11-20T04:41:42;-2.20;99.90
16200;DHT22;8207;52.494;4.654;2022-11-20T04:44:09;-2.20;99.90
16200;DHT22;8207;52.494;4.654;2022-11-20T04:46:38;-2.20;99.90
16200;DHT22;8207;52.494;4.654;2022-11-20T04:49:05;-2.20;99.90
16200;DHT22;8207;52.494;4.654;2022-11-20T04:51:33;-2.20;99.90
16200;DHT22;8207;52.494;4.654;2022-11-20T04:54:00;-2.20;99.90
16200;DHT22;8207;52.494;4.654;2022-11-20T04:56:27;-2.20;99.90
16200;DHT22;8207;52.494;4.654;2022-11-20T04:58:55;-2.20;99.90
16200;DHT22;8207;52.494;4.654;2022-11-20T05:01:26;-2.20;99.90
16200;DHT22;8207;52.494;4.654;2022-11-20T05:03:52;-2.20;99.90
16200;DHT22;8207;52.494;4.654;2022-11-20T05:06:21;-2.30;99.90
16200;DHT22;8207;52.494;4.654;2022-11-20T05:08:48;-2.30;99.90
16200;DHT22;8207;52.494;4.654;2022-11-20T05:11:17;-2.20;99.90
16200;DHT22;8207;52.494;4.654;2022-11-20T05:13:44;-2.20;99.90
16200;DHT22;8207;52.494;4.654;2022-11-20T05:16:13;-2.20;99.90
16200;DHT22;8207;52.494;4.654;2022-11-20T05:18:41;-2.20;99.90
16200;DHT22;8207;52.494;4.654;2022-11-20T05:21:09;-2.20;99.90
16200;DHT22;8207;52.494;4.654;2022-11-20T05:23:37;-2.20;99.90
16200;DHT22;8207;52.494;4.654;2022-11-20T05:26:05;-2.20;99.90
16200;DHT22;8207;52.494;4.654;2022-11-20T05:28:32;-2.20;99.90
16200;DHT22;8207;52.494;4.654;2022-11-20T05:31:07;-2.20;99.90
16200;DHT22;8207;52.494;4.654;2022-11-20T05:33:36;-2.20;99.90
16200;DHT22;8207;52.494;4.654;2022-11-20T05:36:04;-2.20;99.90
16200;DHT22;8207;52.494;4.654;2022-11-20T05:38:31;-2.20;99.90
16200;DHT22;8207;52.494;4.654;2022-11-20T05:41:03;-2.20;99.90
16200;DHT22;8207;52.494;4.654;2022-11-20T05:43:32;-2.10;99.90
16200;DHT22;8207;52.494;4.654;2022-11-20T05:45:59;-2.20;99.90
16200;DHT22;8207;52.494;4.654;2022-11-20T05:48:26;-2.10;99.90
16200;DHT22;8207;52.494;4.654;2022-11-20T05:50:57;-2.20;99.90
16200;DHT22;8207;52.494;4.654;2022-11-20T05:53:24;-2.10;99.90
16200;DHT22;8207;52.494;4.654;2022-11-20T05:55:57;-2.10;99.90
16200;DHT22;8207;52.494;4.654;2022-11-20T05:58:24;-2.10;99.90
16200;DHT22;8207;52.494;4.654;2022-11-20T06:00:51;-2.10;99.90
16200;DHT22;8207;52.494;4.654;2022-11-20T06:03:18;-2.00;99.90
16200;DHT22;8207;52.494;4.654;2022-11-20T06:05:45;-2.00;99.90
16200;DHT22;8207;52.494;4.654;2022-11-20T06:08:13;-2.00;99.90
16200;DHT22;8207;52.494;4.654;2022-11-20T06:10:40;-2.00;99.90
16200;DHT22;8207;52.494;4.654;2022-11-20T06:13:06;-2.00;99.90
16200;DHT22;8207;52.494;4.654;2022-11-20T06:15:33;-1.90;99.90
16200;DHT22;8207;52.494;4.654;2022-11-20T06:18:00;-1.90;99.90
16200;DHT22;8207;52.494;4.654;2022-11-20T06:20:27;-1.80;99.90
16200;DHT22;8207;52.494;4.654;2022-11-20T06:22:54;-1.80;99.90
16200;DHT22;8207;52.494;4.654;2022-11-20T06:25:22;-1.80;99.90
16200;DHT22;8207;52.494;4.654;2022-11-20T06:27:49;-1.80;99.90
16200;DHT22;8207;52.494;4.654;2022-11-20T06:30:16;-1.70;99.90
16200;DHT22;8207;52.494;4.654;2022-11-20T06:32:43;-1.70;99.90
16200;DHT22;8207;52.494;4.654;2022-11-20T06:35:10;-1.70;99.90
16200;DHT22;8207;52.494;4.654;2022-11-20T06:37:37;-1.60;99.90
16200;DHT22;8207;52.494;4.654;2022-11-20T06:40:04;-1.60;99.90
16200;DHT22;8207;52.494;4.654;2022-11-20T06:42:33;-1.60;99.90
16200;DHT22;8207;52.494;4.654;2022-11-20T06:45:00;-1.60;99.90
16200;DHT22;8207;52.494;4.654;2022-11-20T06:47:27;-1.50;99.90
16200;DHT22;8207;52.494;4.654;2022-11-20T06:49:54;-1.50;99.90
16200;DHT22;8207;52.494;4.654;2022-11-20T06:52:20;-1.50;99.90
16200;DHT22;8207;52.494;4.654;2022-11-20T06:54:47;-1.50;99.90
16200;DHT22;8207;52.494;4.654;2022-11-20T06:57:14;-1.40;99.90
16200;DHT22;8207;52.494;4.654;2022-11-20T06:59:43;-1.40;99.90
16200;DHT22;8207;52.494;4.654;2022-11-20T07:02:10;-1.40;99.90
16200;DHT22;8207;52.494;4.654;2022-11-20T07:04:37;-1.40;99.90
16200;DHT22;8207;52.494;4.654;2022-11-20T07:07:04;-1.40;99.90
16200;DHT22;8207;52.494;4.654;2022-11-20T07:09:31;-1.30;99.90
16200;DHT22;8207;52.494;4.654;2022-11-20T07:11:59;-1.30;99.90
16200;DHT22;8207;52.494;4.654;2022-11-20T07:14:25;-1.30;99.90
16200;DHT22;8207;52.494;4.654;2022-11-20T07:16:54;-1.30;99.90
16200;DHT22;8207;52.494;4.654;2022-11-20T07:19:21;-1.30;99.90
16200;DHT22;8207;52.494;4.654;2022-11-20T07:21:47;-1.20;99.90
16200;DHT22;8207;52.494;4.654;2022-11-20T07:24:14;-1.20;99.90
16200;DHT22;8207;52.494;4.654;2022-11-20T07:26:41;-1.20;99.90
16200;DHT22;8207;52.494;4.654;2022-11-20T07:29:08;-1.10;99.90
16200;DHT22;8207;52.494;4.654;2022-11-20T07:31:35;-1.10;99.90
16200;DHT22;8207;52.494;4.654;2022-11-20T07:34:03;-1.10;99.90
16200;DHT22;8207;52.494;4.654;2022-11-20T07:36:30;-1.00;99.90
16200;DHT22;8207;52.494;4.654;2022-11-20T07:38:57;-1.00;99.90
16200;DHT22;8207;52.494;4.654;2022-11-20T07:41:24;-1.00;99.90
16200;DHT22;8207;52.494;4.654;2022-11-20T07:43:50;-0.90;99.90
16200;DHT22;8207;52.494;4.654;2022-11-20T07:46:18;-0.90;99.90
16200;DHT22;8207;52.494;4.654;2022-11-20T07:48:44;-0.80;99.90
16200;DHT22;8207;52.494;4.654;2022-11-20T07:51:13;-0.80;99.90
16200;DHT22;8207;52.494;4.654;2022-11-20T07:53:39;-0.80;99.90
16200;DHT22;8207;52.494;4.654;2022-11-20T07:56:07;-0.70;99.90
16200;DHT22;8207;52.494;4.654;2022-11-20T07:58:34;-0.70;99.90
16200;DHT22;8207;52.494;4.654;2022-11-20T08:01:04;-0.70;99.90
16200;DHT22;8207;52.494;4.654;2022-11-20T08:03:31;-0.60;99.90
16200;DHT22;8207;52.494;4.654;2022-11-20T08:05:58;-0.60;99.90
16200;DHT22;8207;52.494;4.654;2022-11-20T08:08:27;-0.60;99.90
16200;DHT22;8207;52.494;4.654;2022-11-20T08:10:56;-0.50;99.90
16200;DHT22;8207;52.494;4.654;2022-11-20T08:13:43;-0.50;99.90
16200;DHT22;8207;52.494;4.654;2022-11-20T08:16:27;-0.50;99.90
16200;DHT22;8207;52.494;4.654;2022-11-20T08:18:54;-0.40;99.90
16200;DHT22;8207;52.494;4.654;2022-11-20T08:21:21;-0.40;99.90
16200;DHT22;8207;52.494;4.654;2022-11-20T08:23:50;-0.40;99.90
16200;DHT22;8207;52.494;4.654;2022-11-20T08:26:17;-0.30;99.90
16200;DHT22;8207;52.494;4.654;2022-11-20T08:28:44;-0.30;99.90
16200;DHT22;8207;52.494;4.654;2022-11-20T08:31:11;-0.30;99.90
16200;DHT22;8207;52.494;4.654;2022-11-20T08:33:38;-0.20;99.90
16200;DHT22;8207;52.494;4.654;2022-11-20T08:36:05;-0.20;99.90
16200;DHT22;8207;52.494;4.654;2022-11-20T08:38:32;-0.20;99.90
16200;DHT22;8207;52.494;4.654;2022-11-20T08:41:02;-0.10;99.90
16200;DHT22;8207;52.494;4.654;2022-11-20T08:43:48;-0.10;99.90
16200;DHT22;8207;52.494;4.654;2022-11-20T08:46:15;0.00;99.90
16200;DHT22;8207;52.494;4.654;2022-11-20T08:48:42;0.00;99.90
16200;DHT22;8207;52.494;4.654;2022-11-20T08:51:10;0.10;99.90
16200;DHT22;8207;52.494;4.654;2022-11-20T08:53:37;0.10;99.90
16200;DHT22;8207;52.494;4.654;2022-11-20T08:56:06;0.20;99.90
16200;DHT22;8207;52.494;4.654;2022-11-20T08:58:33;0.20;99.90
16200;DHT22;8207;52.494;4.654;2022-11-20T09:01:00;0.20;99.90
16200;DHT22;8207;52.494;4.654;2022-11-20T09:03:28;0.30;99.90
16200;DHT22;8207;52.494;4.654;2022-11-20T09:05:57;0.30;99.90
16200;DHT22;8207;52.494;4.654;2022-11-20T09:08:25;0.30;99.90
16200;DHT22;8207;52.494;4.654;2022-11-20T09:10:52;0.40;99.90
16200;DHT22;8207;52.494;4.654;2022-11-20T09:13:21;0.40;99.90
16200;DHT22;8207;52.494;4.654;2022-11-20T09:15:53;0.50;99.90
16200;DHT22;8207;52.494;4.654;2022-11-20T09:18:20;0.50;99.90
16200;DHT22;8207;52.494;4.654;2022-11-20T09:20:47;0.60;99.90
16200;DHT22;8207;52.494;4.654;2022-11-20T09:23:14;0.60;99.90
16200;DHT22;8207;52.494;4.654;2022-11-20T09:25:41;0.70;99.90
16200;DHT22;8207;52.494;4.654;2022-11-20T09:28:08;0.80;99.90
16200;DHT22;8207;52.494;4.654;2022-11-20T09:30:36;0.80;99.90
16200;DHT22;8207;52.494;4.654;2022-11-20T09:33:04;0.90;99.90
16200;DHT22;8207;52.494;4.654;2022-11-20T09:35:31;0.90;99.90
16200;DHT22;8207;52.494;4.654;2022-11-20T09:38:03;1.00;99.90
16200;DHT22;8207;52.494;4.654;2022-11-20T09:40:30;1.00;99.90
16200;DHT22;8207;52.494;4.654;2022-11-20T09:43:00;1.00;99.90
16200;DHT22;8207;52.494;4.654;2022-11-20T09:45:42;1.10;99.90
16200;DHT22;8207;52.494;4.654;2022-11-20T09:48:20;1.10;99.90
16200;DHT22;8207;52.494;4.654;2022-11-20T09:50:57;1.10;99.90
16200;DHT22;8207;52.494;4.654;2022-11-20T09:53:33;1.20;99.90
16200;DHT22;8207;52.494;4.654;2022-11-20T09:56:03;1.20;99.90
16200;DHT22;8207;52.494;4.654;2022-11-20T09:58:33;1.30;99.90
16200;DHT22;8207;52.494;4.654;2022-11-20T10:01:10;1.30;99.90
16200;DHT22;8207;52.494;4.654;2022-11-20T10:03:45;1.40;99.90
16200;DHT22;8207;52.494;4.654;2022-11-20T10:06:15;1.40;99.90
16200;DHT22;8207;52.494;4.654;2022-11-20T10:08:47;1.40;99.90
16200;DHT22;8207;52.494;4.654;2022-11-20T10:11:24;1.50;99.90
16200;DHT22;8207;52.494;4.654;2022-11-20T10:13:59;1.50;99.90
16200;DHT22;8207;52.494;4.654;2022-11-20T10:16:36;1.60;99.90
16200;DHT22;8207;52.494;4.654;2022-11-20T10:19:18;1.60;99.90
16200;DHT22;8207;52.494;4.654;2022-11-20T10:21:55;1.70;99.90
16200;DHT22;8207;52.494;4.654;2022-11-20T10:24:41;1.70;99.90
16200;DHT22;8207;52.494;4.654;2022-11-20T10:27:25;1.70;99.90
16200;DHT22;8207;52.494;4.654;2022-11-20T10:30:02;1.80;99.90
16200;DHT22;8207;52.494;4.654;2022-11-20T10:32:36;1.80;99.90
16200;DHT22;8207;52.494;4.654;2022-11-20T10:35:14;1.90;99.90
16200;DHT22;8207;52.494;4.654;2022-11-20T10:37:44;1.90;99.90
16200;DHT22;8207;52.494;4.654;2022-11-20T10:40:20;2.00;99.90
16200;DHT22;8207;52.494;4.654;2022-11-20T10:42:52;2.00;99.90
16200;DHT22;8207;52.494;4.654;2022-11-20T10:45:36;2.00;99.90
16200;DHT22;8207;52.494;4.654;2022-11-20T10:48:15;2.10;99.90
16200;DHT22;8207;52.494;4.654;2022-11-20T10:51:01;2.10;99.90
16200;DHT22;8207;52.494;4.654;2022-11-20T10:53:54;2.10;99.90
16200;DHT22;8207;52.494;4.654;2022-11-20T10:56:28;2.20;99.90
16200;DHT22;8207;52.494;4.654;2022-11-20T10:59:11;2.30;99.90
16200;DHT22;8207;52.494;4.654;2022-11-20T11:01:41;2.30;99.90
16200;DHT22;8207;52.494;4.654;2022-11-20T11:04:21;2.30;99.90
16200;DHT22;8207;52.494;4.654;2022-11-20T11:06:51;2.40;99.90
16200;DHT22;8207;52.494;4.654;2022-11-20T11:09:32;2.40;99.90
16200;DHT22;8207;52.494;4.654;2022-11-20T11:11:59;2.40;99.90
16200;DHT22;8207;52.494;4.654;2022-11-20T11:14:26;2.40;99.90
16200;DHT22;8207;52.494;4.654;2022-11-20T11:16:54;2.40;99.90
16200;DHT22;8207;52.494;4.654;2022-11-20T11:19:23;2.50;99.90
16200;DHT22;8207;52.494;4.654;2022-11-20T11:21:53;2.50;99.90
16200;DHT22;8207;52.494;4.654;2022-11-20T11:24:22;2.50;99.90
16200;DHT22;8207;52.494;4.654;2022-11-20T11:26:57;2.50;99.90
16200;DHT22;8207;52.494;4.654;2022-11-20T11:29:25;2.50;99.90
16200;DHT22;8207;52.494;4.654;2022-11-20T11:32:04;2.50;99.90
16200;DHT22;8207;52.494;4.654;2022-11-20T11:34:33;2.50;99.90
16200;DHT22;8207;52.494;4.654;2022-11-20T11:37:02;2.50;99.90
16200;DHT22;8207;52.494;4.654;2022-11-20T11:39:31;2.60;99.90
16200;DHT22;8207;52.494;4.654;2022-11-20T11:42:00;2.60;99.90
16200;DHT22;8207;52.494;4.654;2022-11-20T11:44:29;2.60;99.90
16200;DHT22;8207;52.494;4.654;2022-11-20T11:47:22;2.70;99.90
16200;DHT22;8207;52.494;4.654;2022-11-20T11:50:08;2.70;99.90
16200;DHT22;8207;52.494;4.654;2022-11-20T11:52:43;2.70;99.90
16200;DHT22;8207;52.494;4.654;2022-11-20T11:55:17;2.70;99.90
16200;DHT22;8207;52.494;4.654;2022-11-20T11:57:47;2.80;99.90
16200;DHT22;8207;52.494;4.654;2022-11-20T12:00:17;2.80;99.90
16200;DHT22;8207;52.494;4.654;2022-11-20T12:02:54;2.90;99.90
16200;DHT22;8207;52.494;4.654;2022-11-20T12:05:27;2.90;99.90
16200;DHT22;8207;52.494;4.654;2022-11-20T12:07:58;2.90;99.90
16200;DHT22;8207;52.494;4.654;2022-11-20T12:10:44;2.90;99.90
16200;DHT22;8207;52.494;4.654;2022-11-20T12:13:20;2.90;99.90
16200;DHT22;8207;52.494;4.654;2022-11-20T12:15:48;2.90;99.90
16200;DHT22;8207;52.494;4.654;2022-11-20T12:18:18;2.90;99.90
16200;DHT22;8207;52.494;4.654;2022-11-20T12:20:54;3.00;99.90
16200;DHT22;8207;52.494;4.654;2022-11-20T12:23:30;3.00;99.90
16200;DHT22;8207;52.494;4.654;2022-11-20T12:26:08;3.00;99.90
16200;DHT22;8207;52.494;4.654;2022-11-20T12:28:52;3.10;99.90
16200;DHT22;8207;52.494;4.654;2022-11-20T12:31:38;3.00;99.90
16200;DHT22;8207;52.494;4.654;2022-11-20T12:34:17;3.10;99.90
16200;DHT22;8207;52.494;4.654;2022-11-20T12:36:55;3.10;99.90
16200;DHT22;8207;52.494;4.654;2022-11-20T12:39:34;3.10;99.90
16200;DHT22;8207;52.494;4.654;2022-11-20T12:42:25;3.10;99.90
16200;DHT22;8207;52.494;4.654;2022-11-20T12:45:33;3.10;99.90
16200;DHT22;8207;52.494;4.654;2022-11-20T12:51:29;3.20;99.90
16200;DHT22;8207;52.494;4.654;2022-11-20T12:54:20;3.20;99.90
16200;DHT22;8207;52.494;4.654;2022-11-20T12:56:56;3.10;99.90
16200;DHT22;8207;52.494;4.654;2022-11-20T12:59:36;3.20;99.90
16200;DHT22;8207;52.494;4.654;2022-11-20T13:02:22;3.20;99.90
16200;DHT22;8207;52.494;4.654;2022-11-20T13:05:08;3.20;99.90
16200;DHT22;8207;52.494;4.654;2022-11-20T13:07:39;3.30;99.90
16200;DHT22;8207;52.494;4.654;2022-11-20T13:10:15;3.30;99.90
16200;DHT22;8207;52.494;4.654;2022-11-20T13:12:46;3.30;99.90
16200;DHT22;8207;52.494;4.654;2022-11-20T13:15:21;3.40;99.90
16200;DHT22;8207;52.494;4.654;2022-11-20T13:17:54;3.40;99.90
16200;DHT22;8207;52.494;4.654;2022-11-20T13:20:22;3.30;99.90
16200;DHT22;8207;52.494;4.654;2022-11-20T13:22:50;3.20;99.90
16200;DHT22;8207;52.494;4.654;2022-11-20T13:25:27;3.20;99.90
16200;DHT22;8207;52.494;4.654;2022-11-20T13:27:55;3.20;99.90
16200;DHT22;8207;52.494;4.654;2022-11-20T13:30:23;3.20;99.90
16200;DHT22;8207;52.494;4.654;2022-11-20T13:32:54;3.20;99.90
16200;DHT22;8207;52.494;4.654;2022-11-20T13:35:28;3.20;99.90
16200;DHT22;8207;52.494;4.654;2022-11-20T13:38:05;3.20;99.90
16200;DHT22;8207;52.494;4.654;2022-11-20T13:40:35;3.20;99.90
16200;DHT22;8207;52.494;4.654;2022-11-20T13:43:10;3.20;99.90
16200;DHT22;8207;52.494;4.654;2022-11-20T13:45:41;3.20;99.90
16200;DHT22;8207;52.494;4.654;2022-11-20T13:48:20;3.20;99.90
16200;DHT22;8207;52.494;4.654;2022-11-20T13:50:55;3.20;99.90
16200;DHT22;8207;52.494;4.654;2022-11-20T13:53:46;3.20;99.90
16200;DHT22;8207;52.494;4.654;2022-11-20T13:56:24;3.20;99.90
16200;DHT22;8207;52.494;4.654;2022-11-20T13:58:58;3.20;99.90
16200;DHT22;8207;52.494;4.654;2022-11-20T14:01:29;3.20;99.90
16200;DHT22;8207;52.494;4.654;2022-11-20T14:03:57;3.20;99.90
16200;DHT22;8207;52.494;4.654;2022-11-20T14:06:27;3.20;99.90
16200;DHT22;8207;52.494;4.654;2022-11-20T14:08:54;3.20;99.90
16200;DHT22;8207;52.494;4.654;2022-11-20T14:11:25;3.20;99.90
16200;DHT22;8207;52.494;4.654;2022-11-20T14:13:58;3.20;99.90
16200;DHT22;8207;52.494;4.654;2022-11-20T14:16:27;3.20;99.90
16200;DHT22;8207;52.494;4.654;2022-11-20T14:18:54;3.30;99.90
16200;DHT22;8207;52.494;4.654;2022-11-20T14:21:23;3.30;99.90
16200;DHT22;8207;52.494;4.654;2022-11-20T14:23:53;3.20;99.90
16200;DHT22;8207;52.494;4.654;2022-11-20T14:26:20;3.20;99.90
16200;DHT22;8207;52.494;4.654;2022-11-20T14:28:50;3.20;99.90
16200;DHT22;8207;52.494;4.654;2022-11-20T14:31:23;3.20;99.90
16200;DHT22;8207;52.494;4.654;2022-11-20T14:33:52;3.20;99.90
16200;DHT22;8207;52.494;4.654;2022-11-20T14:36:21;3.20;99.90
16200;DHT22;8207;52.494;4.654;2022-11-20T14:38:49;3.20;99.90
16200;DHT22;8207;52.494;4.654;2022-11-20T14:41:18;3.20;99.90
16200;DHT22;8207;52.494;4.654;2022-11-20T14:43:49;3.20;99.90
16200;DHT22;8207;52.494;4.654;2022-11-20T14:46:17;3.20;99.90
16200;DHT22;8207;52.494;4.654;2022-11-20T14:48:46;3.20;99.90
16200;DHT22;8207;52.494;4.654;2022-11-20T14:51:27;3.20;99.90
16200;DHT22;8207;52.494;4.654;2022-11-20T14:53:55;3.20;99.90
16200;DHT22;8207;52.494;4.654;2022-11-20T14:56:23;3.20;99.90
16200;DHT22;8207;52.494;4.654;2022-11-20T14:58:58;3.20;99.90
16200;DHT22;8207;52.494;4.654;2022-11-20T15:01:26;3.20;99.90
16200;DHT22;8207;52.494;4.654;2022-11-20T15:04:00;3.20;99.90
16200;DHT22;8207;52.494;4.654;2022-11-20T15:06:27;3.30;99.90
16200;DHT22;8207;52.494;4.654;2022-11-20T15:08:55;3.20;99.90
16200;DHT22;8207;52.494;4.654;2022-11-20T15:11:27;3.30;99.90
16200;DHT22;8207;52.494;4.654;2022-11-20T15:13:55;3.20;99.90
16200;DHT22;8207;52.494;4.654;2022-11-20T15:16:24;3.20;99.90
16200;DHT22;8207;52.494;4.654;2022-11-20T15:18:53;3.20;99.90
16200;DHT22;8207;52.494;4.654;2022-11-20T15:21:20;3.20;99.90
16200;DHT22;8207;52.494;4.654;2022-11-20T15:23:48;3.20;99.90
16200;DHT22;8207;52.494;4.654;2022-11-20T15:26:20;3.20;99.90
16200;DHT22;8207;52.494;4.654;2022-11-20T15:28:47;3.30;99.90
16200;DHT22;8207;52.494;4.654;2022-11-20T15:31:17;3.30;99.90
16200;DHT22;8207;52.494;4.654;2022-11-20T15:33:45;3.30;99.90
16200;DHT22;8207;52.494;4.654;2022-11-20T15:36:12;3.30;99.90
16200;DHT22;8207;52.494;4.654;2022-11-20T15:38:39;3.30;99.90
16200;DHT22;8207;52.494;4.654;2022-11-20T15:41:06;3.30;99.90
16200;DHT22;8207;52.494;4.654;2022-11-20T15:43:33;3.30;99.90
16200;DHT22;8207;52.494;4.654;2022-11-20T15:46:03;3.30;99.90
16200;DHT22;8207;52.494;4.654;2022-11-20T15:48:34;3.40;99.90
16200;DHT22;8207;52.494;4.654;2022-11-20T15:51:05;3.40;99.90
16200;DHT22;8207;52.494;4.654;2022-11-20T15:53:33;3.40;99.90
16200;DHT22;8207;52.494;4.654;2022-11-20T15:56:00;3.40;99.90
16200;DHT22;8207;52.494;4.654;2022-11-20T15:58:27;3.40;99.90
16200;DHT22;8207;52.494;4.654;2022-11-20T16:00:53;3.40;99.90
16200;DHT22;8207;52.494;4.654;2022-11-20T16:03:20;3.40;99.90
16200;DHT22;8207;52.494;4.654;2022-11-20T16:05:47;3.40;99.90
16200;DHT22;8207;52.494;4.654;2022-11-20T16:08:16;3.40;99.90
16200;DHT22;8207;52.494;4.654;2022-11-20T16:10:43;3.40;99.90
16200;DHT22;8207;52.494;4.654;2022-11-20T16:13:14;3.40;99.90
16200;DHT22;8207;52.494;4.654;2022-11-20T16:16:01;3.40;99.90